Time;durP1;ratioP1;P1;durP2;ratioP2;P2;SDS_P1;SDS_P2;PMS_P1;PMS_P2;Temp;Humidity;BMP_temperature;BMP_pressure;BME280_temperature;BME280_humidity;BME280_pressure;Samples;Min_cycle;Max_cycle;Signal;HPM_P1;HPM_P2
2023/07/10 00:00:19;;;;;;;60.72;55.72;;;;;;;17.14;100.00;101346.59;6092588;23;20029;-78
2023/07/10 00:02:46;;;;;;;118.90;111.00;;;;;;;17.25;100.00;101336.94;6093136;23;20471;-80
2023/07/10 00:05:14;;;;;;;74.75;68.95;;;;;;;17.33;100.00;101333.84;6092274;23;20073;-79
2023/07/10 00:07:42;;;;;;;47.30;43.00;;;;;;;17.44;100.00;101331.41;6093248;23;20361;-80
2023/07/10 00:10:11;;;;;;;56.75;51.88;;;;;;;17.22;100.00;101332.03;6092868;23;20543;-80
2023/07/10 00:12:38;;;;;;;68.35;62.88;;;;;;;17.36;100.00;101338.75;6093441;23;20033;-80
2023/07/10 00:15:20;;;;;;;66.95;61.60;;;;;;;16.96;100.00;101340.53;6092966;23;20022;-80
2023/07/10 00:17:50;;;;;;;84.35;78.07;;;;;;;17.18;100.00;101333.53;6092238;23;20023;-80
2023/07/10 00:20:19;;;;;;;83.65;77.35;;;;;;;17.24;100.00;101340.63;6092679;23;20057;-78
2023/07/10 00:22:47;;;;;;;69.68;63.63;;;;;;;17.23;100.00;101335.53;6092769;23;20106;-79
2023/07/10 00:25:16;;;;;;;79.30;73.00;;;;;;;16.99;100.00;101335.53;6093058;23;20022;-79
2023/07/10 00:27:44;;;;;;;73.53;67.72;;;;;;;17.23;100.00;101333.66;6092728;23;20024;-79
2023/07/10 00:30:17;;;;;;;60.92;55.63;;;;;;;17.47;100.00;101333.63;6092719;23;20030;-79
2023/07/10 00:32:45;;;;;;;63.92;58.38;;;;;;;17.01;100.00;101332.63;6092872;23;20395;-80
2023/07/10 00:35:16;;;;;;;74.55;68.50;;;;;;;16.89;100.00;101340.66;6092676;23;20479;-80
2023/07/10 00:37:46;;;;;;;70.85;64.85;;;;;;;17.17;100.00;101342.63;6093092;23;20022;-79
2023/07/10 00:40:19;;;;;;;67.18;61.50;;;;;;;17.18;100.00;101341.59;6092510;23;20023;-79
2023/07/10 00:42:53;;;;;;;70.95;65.25;;;;;;;17.01;100.00;101340.69;6093038;23;20376;-78
2023/07/10 00:45:22;;;;;;;87.95;81.35;;;;;;;17.17;100.00;101346.13;6093234;23;20025;-79
2023/07/10 00:48:01;;;;;;;86.95;80.25;;;;;;;16.84;100.00;101343.22;6094510;23;20362;-79
2023/07/10 00:50:34;;;;;;;78.13;71.68;;;;;;;16.92;100.00;101341.00;6094892;23;20018;-78
2023/07/10 00:53:05;;;;;;;95.05;87.75;;;;;;;16.53;100.00;101342.44;6094922;23;20354;-78
2023/07/10 00:55:35;;;;;;;81.93;75.53;;;;;;;16.87;100.00;101338.19;6094699;23;20033;-78
2023/07/10 00:58:18;;;;;;;89.75;82.75;;;;;;;16.90;100.00;101345.78;6094493;23;20023;-78
2023/07/10 01:03:51;;;;;;;84.53;77.90;;;;;;;16.84;100.00;101344.03;5143675;27;20400;-77
2023/07/10 01:06:21;;;;;;;99.22;91.97;;;;;;;16.57;100.00;101340.94;5139184;27;20047;-77
2023/07/10 01:08:52;;;;;;;76.78;70.53;;;;;;;16.64;100.00;101335.47;5142253;27;20035;-77
2023/07/10 01:11:20;;;;;;;75.68;69.57;;;;;;;16.90;100.00;101344.97;5128106;28;20058;-77
2023/07/10 01:13:51;;;;;;;73.68;67.68;;;;;;;16.98;100.00;101344.63;5127754;28;20052;-77
2023/07/10 01:16:19;;;;;;;68.43;62.65;;;;;;;16.96;100.00;101340.53;5135787;27;20050;-77
2023/07/10 01:18:46;;;;;;;68.70;62.80;;;;;;;16.96;100.00;101346.72;5142307;27;20494;-77
2023/07/10 01:21:23;;;;;;;70.43;64.43;;;;;;;16.82;100.00;101339.94;5137967;27;20050;-77
2023/07/10 01:23:50;;;;;;;71.25;65.35;;;;;;;16.81;100.00;101346.38;5133694;27;20130;-77
2023/07/10 01:26:17;;;;;;;70.25;64.38;;;;;;;16.79;100.00;101338.53;5137248;27;20145;-77
2023/07/10 01:28:45;;;;;;;60.00;54.90;;;;;;;16.63;100.00;101344.56;5137823;27;20567;-77
2023/07/10 01:31:17;;;;;;;69.85;63.75;;;;;;;16.11;100.00;101347.00;5144872;27;20047;-77
2023/07/10 01:33:51;;;;;;;69.57;63.97;;;;;;;16.31;100.00;101342.16;5142282;27;20051;-77
2023/07/10 01:36:23;;;;;;;62.65;56.88;;;;;;;16.55;100.00;101347.56;5132831;27;20418;-78
2023/07/10 01:38:55;;;;;;;55.88;50.78;;;;;;;16.53;100.00;101334.41;5144277;27;20039;-78
2023/07/10 01:41:28;;;;;;;57.05;51.72;;;;;;;16.45;100.00;101346.25;5140841;27;20051;-78
2023/07/10 01:43:55;;;;;;;62.15;56.72;;;;;;;16.37;100.00;101338.56;5142903;27;20054;-78
2023/07/10 01:46:24;;;;;;;58.53;53.35;;;;;;;16.45;100.00;101332.84;5143050;27;20527;-78
2023/07/10 01:48:54;;;;;;;59.95;54.75;;;;;;;16.55;100.00;101344.88;5139226;27;20054;-78
2023/07/10 01:51:24;;;;;;;67.30;61.15;;;;;;;16.58;100.00;101339.91;5137715;27;20517;-78
2023/07/10 01:53:51;;;;;;;60.00;54.70;;;;;;;16.22;100.00;101340.88;5131702;27;20052;-78
2023/07/10 01:56:21;;;;;;;68.45;62.83;;;;;;;15.85;100.00;101348.16;5139890;27;20043;-78
2023/07/10 01:58:48;;;;;;;68.55;62.75;;;;;;;16.14;100.00;101351.91;5136360;27;20047;-78
2023/07/10 02:01:14;;;;;;;82.18;75.50;;;;;;;16.20;100.00;101346.44;5134263;27;20047;-78
2023/07/10 02:03:41;;;;;;;83.43;76.82;;;;;;;16.34;100.00;101343.56;5137933;27;20050;-77
2023/07/10 02:06:08;;;;;;;78.45;72.22;;;;;;;16.40;100.00;101348.84;5140086;27;20533;-77
2023/07/10 02:08:36;;;;;;;98.65;91.25;;;;;;;15.74;100.00;101352.41;5127231;27;20395;-77
2023/07/10 02:11:03;;;;;;;112.30;104.20;;;;;;;15.67;100.00;101356.97;5127097;28;20047;-77
2023/07/10 02:13:30;;;;;;;87.18;80.30;;;;;;;16.16;100.00;101352.50;5128491;27;20051;-77
2023/07/10 02:16:02;;;;;;;91.18;84.15;;;;;;;16.44;100.00;101351.88;5127124;27;20040;-77
2023/07/10 02:18:29;;;;;;;88.35;81.80;;;;;;;16.42;100.00;101354.75;5129394;27;20131;-77
2023/07/10 02:20:56;;;;;;;89.45;82.55;;;;;;;16.52;100.00;101353.41;5126694;27;20050;-76
2023/07/10 02:23:24;;;;;;;94.22;87.38;;;;;;;16.43;100.00;101359.09;5129522;27;20047;-77
2023/07/10 02:25:52;;;;;;;95.07;87.57;;;;;;;16.19;100.00;101360.06;5130012;27;20062;-77
2023/07/10 02:28:19;;;;;;;99.93;92.13;;;;;;;16.16;100.00;101355.97;5129592;27;20059;-77
2023/07/10 02:30:46;;;;;;;86.47;79.93;;;;;;;16.05;100.00;101361.28;5128688;27;20137;-78
2023/07/10 02:33:13;;;;;;;92.55;85.75;;;;;;;15.67;100.00;101365.00;5129983;27;20051;-78
2023/07/10 02:35:40;;;;;;;68.93;63.05;;;;;;;16.03;100.00;101359.63;5125836;27;20047;-78
2023/07/10 02:38:07;;;;;;;72.88;66.70;;;;;;;16.23;100.00;101363.94;5127246;27;20067;-78
2023/07/10 02:40:34;;;;;;;64.60;59.20;;;;;;;16.19;100.00;101368.94;5126803;27;20728;-78
2023/07/10 02:43:02;;;;;;;62.33;56.72;;;;;;;16.20;100.00;101369.75;5124800;27;20039;-78
2023/07/10 02:45:29;;;;;;;54.72;49.72;;;;;;;16.14;100.00;101378.69;5126602;27;20047;-78
2023/07/10 02:47:56;;;;;;;45.30;40.42;;;;;;;16.07;100.00;101388.66;5125465;27;20430;-78
2023/07/10 02:50:23;;;;;;;43.33;39.10;;;;;;;16.03;100.00;101382.94;5129085;27;20058;-79
2023/07/10 02:52:50;;;;;;;46.08;41.88;;;;;;;16.21;100.00;101392.81;5124090;27;20093;-78
2023/07/10 02:55:17;;;;;;;41.08;37.08;;;;;;;16.24;100.00;101382.44;5126821;27;20051;-78
2023/07/10 02:57:44;;;;;;;45.53;41.22;;;;;;;15.54;100.00;101392.75;5122646;27;20086;-79
2023/07/10 03:00:13;;;;;;;53.33;48.72;;;;;;;15.37;100.00;101389.00;5123550;27;20059;-79
2023/07/10 03:02:40;;;;;;;52.92;48.33;;;;;;;15.94;100.00;101392.31;5125478;27;20055;-78
2023/07/10 03:05:08;;;;;;;49.95;45.33;;;;;;;16.23;100.00;101394.22;5120316;27;20126;-78
2023/07/10 03:07:35;;;;;;;53.28;48.05;;;;;;;15.96;100.00;101396.44;5121642;27;20066;-78
2023/07/10 03:10:02;;;;;;;52.00;47.47;;;;;;;15.76;100.00;101402.03;5119547;27;20400;-79
2023/07/10 03:12:29;;;;;;;50.63;46.00;;;;;;;16.15;100.00;101405.25;5114533;27;20052;-78
2023/07/10 03:14:57;;;;;;;43.20;39.25;;;;;;;16.10;100.00;101402.44;5122422;27;20051;-79
2023/07/10 03:17:25;;;;;;;46.47;42.13;;;;;;;16.00;100.00;101402.16;5122437;27;20046;-78
2023/07/10 03:19:52;;;;;;;47.67;43.30;;;;;;;16.08;100.00;101407.22;5126034;27;20104;-78
2023/07/10 03:22:19;;;;;;;49.25;44.58;;;;;;;15.99;100.00;101400.50;5127583;27;20051;-78
2023/07/10 03:24:46;;;;;;;47.10;42.30;;;;;;;16.41;100.00;101406.75;5128485;27;20043;-79
2023/07/10 03:27:13;;;;;;;45.22;40.55;;;;;;;16.47;100.00;101402.34;5129233;27;20426;-78
2023/07/10 03:29:40;;;;;;;47.95;43.65;;;;;;;16.58;100.00;101396.22;5127469;27;20054;-81
2023/07/10 03:32:09;;;;;;;48.75;44.17;;;;;;;16.44;100.00;101406.31;5130059;27;20057;-81
2023/07/10 03:34:37;;;;;;;51.75;46.47;;;;;;;16.21;100.00;101408.88;5127977;27;20062;-78
2023/07/10 03:37:05;;;;;;;51.03;46.30;;;;;;;16.59;100.00;101403.22;5125009;27;20043;-78
2023/07/10 03:39:32;;;;;;;53.08;48.45;;;;;;;16.78;100.00;101406.66;5127352;27;20047;-78
2023/07/10 03:41:59;;;;;;;49.05;44.65;;;;;;;16.86;100.00;101408.19;5121238;27;20079;-78
2023/07/10 03:44:26;;;;;;;51.58;46.85;;;;;;;16.83;100.00;101409.47;5123946;27;20083;-78
2023/07/10 03:46:53;;;;;;;48.47;43.72;;;;;;;16.93;100.00;101415.09;5132174;27;20058;-78
2023/07/10 03:49:20;;;;;;;48.75;43.95;;;;;;;17.05;100.00;101406.25;5123027;27;20454;-78
2023/07/10 03:51:48;;;;;;;46.03;41.70;;;;;;;16.94;100.00;101402.47;5125745;27;20545;-78
2023/07/10 03:54:15;;;;;;;39.95;36.17;;;;;;;17.08;100.00;101409.28;5124731;27;20046;-78
2023/07/10 03:56:42;;;;;;;48.47;44.13;;;;;;;17.43;100.00;101415.69;5125929;27;20055;-78
2023/07/10 03:59:10;;;;;;;48.63;44.42;;;;;;;17.57;100.00;101417.91;5123630;27;20055;-78
2023/07/10 04:01:39;;;;;;;48.42;43.78;;;;;;;17.63;100.00;101416.94;5117529;27;20167;-78
2023/07/10 04:04:05;;;;;;;46.95;42.88;;;;;;;17.60;100.00;101412.03;5122557;27;20487;-78
2023/07/10 04:06:32;;;;;;;47.13;43.05;;;;;;;17.82;100.00;101406.91;5128794;27;20055;-78
2023/07/10 04:09:01;;;;;;;45.70;40.92;;;;;;;18.00;100.00;101408.63;5126053;27;20135;-78
2023/07/10 04:11:28;;;;;;;44.65;40.75;;;;;;;18.06;100.00;101404.16;5130773;27;20482;-78
2023/07/10 04:13:55;;;;;;;42.63;38.97;;;;;;;17.85;100.00;101403.75;5128319;27;20435;-78
2023/07/10 04:16:23;;;;;;;44.53;40.50;;;;;;;18.13;100.00;101417.47;5127303;27;20049;-78
2023/07/10 04:18:52;;;;;;;45.20;41.47;;;;;;;18.50;100.00;101410.63;5128403;27;20490;-78
2023/07/10 04:21:21;;;;;;;42.63;38.78;;;;;;;18.51;100.00;101411.44;5129119;27;20430;-78
2023/07/10 04:23:49;;;;;;;44.70;41.03;;;;;;;18.46;100.00;101414.88;5125271;27;20582;-78
2023/07/10 04:26:19;;;;;;;39.13;35.92;;;;;;;18.75;100.00;101426.41;5127494;27;20058;-78
2023/07/10 04:28:48;;;;;;;39.05;35.83;;;;;;;19.02;100.00;101420.41;5127126;27;20074;-78
2023/07/10 04:31:16;;;;;;;41.90;38.47;;;;;;;19.04;100.00;101426.38;5124954;27;20043;-78
2023/07/10 04:33:43;;;;;;;44.30;41.00;;;;;;;19.17;100.00;101422.53;5123099;27;20039;-78
2023/07/10 04:36:10;;;;;;;40.35;37.30;;;;;;;19.20;100.00;101416.66;5124163;27;20099;-78
2023/07/10 04:38:37;;;;;;;41.45;38.35;;;;;;;19.32;100.00;101411.16;5127685;27;20429;-78
2023/07/10 04:41:06;;;;;;;44.88;41.78;;;;;;;19.57;100.00;101411.50;5130000;27;20066;-78
2023/07/10 04:43:35;;;;;;;40.08;37.20;;;;;;;19.68;100.00;101412.50;5126588;27;20050;-77
2023/07/10 04:46:04;;;;;;;38.13;35.42;;;;;;;19.72;100.00;101415.50;5126445;27;20047;-77
2023/07/10 04:48:32;;;;;;;39.88;37.10;;;;;;;19.81;100.00;101409.44;5113818;28;20043;-77
2023/07/10 04:51:03;;;;;;;36.80;34.00;;;;;;;19.99;100.00;101415.56;5122781;27;20039;-77
2023/07/10 04:53:31;;;;;;;35.97;33.25;;;;;;;20.03;100.00;101409.44;5124085;27;20074;-77
2023/07/10 04:55:58;;;;;;;35.75;33.05;;;;;;;20.07;100.00;101412.44;5121837;27;20096;-77
2023/07/10 04:58:25;;;;;;;36.70;33.95;;;;;;;20.27;100.00;101412.69;5124397;27;20074;-77
2023/07/10 05:00:55;;;;;;;34.72;32.13;;;;;;;20.38;100.00;101404.69;5115561;28;20057;-77
2023/07/10 05:03:22;;;;;;;39.10;36.30;;;;;;;20.42;100.00;101398.50;5117119;28;20051;-77
2023/07/10 05:05:54;;;;;;;34.85;31.90;;;;;;;20.57;100.00;101400.56;5122652;28;20031;-77
2023/07/10 05:08:21;;;;;;;32.78;29.95;;;;;;;20.67;100.00;101392.56;5124079;28;20050;-77
2023/07/10 05:10:50;;;;;;;33.17;30.23;;;;;;;20.72;100.00;101395.28;5125741;28;20053;-77
2023/07/10 05:13:18;;;;;;;34.85;32.03;;;;;;;21.05;100.00;101388.81;5120385;28;20047;-77
2023/07/10 05:15:46;;;;;;;36.40;33.58;;;;;;;21.16;100.00;101394.28;5117523;28;20048;-77
2023/07/10 05:18:15;;;;;;;35.33;32.58;;;;;;;21.23;100.00;101384.06;5118640;28;20052;-77
2023/07/10 05:20:45;;;;;;;36.38;33.45;;;;;;;21.44;100.00;101387.72;5120699;28;20307;-77
2023/07/10 05:23:12;;;;;;;33.28;30.58;;;;;;;22.35;100.00;101384.53;5119875;28;20481;-77
2023/07/10 05:25:39;;;;;;;24.67;22.35;;;;;;;24.45;100.00;101376.69;5128145;28;20429;-77
2023/07/10 05:28:06;;;;;;;23.88;21.75;;;;;;;24.68;100.00;101375.13;5122229;28;20054;-78
2023/07/10 05:30:36;;;;;;;28.20;25.90;;;;;;;24.51;100.00;101372.03;5120557;27;20487;-77
2023/07/10 05:33:03;;;;;;;27.23;25.45;;;;;;;25.28;100.00;101369.41;5120945;28;20059;-78
2023/07/10 05:35:31;;;;;;;30.15;27.95;;;;;;;25.56;100.00;101361.47;5118015;28;20569;-77
2023/07/10 05:37:58;;;;;;;27.60;25.70;;;;;;;24.79;100.00;101370.41;5117154;28;20525;-78
2023/07/10 05:40:25;;;;;;;26.10;24.30;;;;;;;23.46;100.00;101378.50;5124162;28;20055;-77
2023/07/10 05:42:52;;;;;;;27.40;25.20;;;;;;;23.19;100.00;101382.38;5127307;28;20530;-77
2023/07/10 05:45:19;;;;;;;28.02;25.48;;;;;;;23.29;100.00;101370.69;5127914;28;20070;-77
2023/07/10 05:47:46;;;;;;;28.95;26.67;;;;;;;23.13;100.00;101379.97;5127046;27;20433;-79
2023/07/10 05:50:13;;;;;;;30.13;27.30;;;;;;;23.31;100.00;101374.75;5128486;27;20415;-79
2023/07/10 05:52:41;;;;;;;30.88;28.60;;;;;;;23.34;100.00;101384.25;5125149;27;20055;-79
2023/07/10 05:55:08;;;;;;;29.50;26.73;;;;;;;23.63;100.00;101384.44;5128440;27;20498;-79
2023/07/10 05:57:35;;;;;;;27.48;25.55;;;;;;;24.19;100.00;101381.44;5126221;27;20055;-78
2023/07/10 06:00:02;;;;;;;28.90;26.63;;;;;;;23.85;100.00;101391.41;5125306;27;20544;-79
2023/07/10 06:02:29;;;;;;;26.92;25.02;;;;;;;23.97;100.00;101384.56;5124112;27;20631;-79
2023/07/10 06:04:56;;;;;;;28.33;26.13;;;;;;;23.89;100.00;101387.84;5120215;27;20069;-79
2023/07/10 06:07:23;;;;;;;30.20;28.20;;;;;;;23.79;100.00;101389.81;5127187;27;20047;-79
2023/07/10 06:09:51;;;;;;;30.20;27.77;;;;;;;23.74;100.00;101385.22;5128111;27;20043;-78
2023/07/10 06:12:18;;;;;;;28.50;26.30;;;;;;;23.67;100.00;101382.78;5117035;27;20328;-79
2023/07/10 06:14:45;;;;;;;29.40;27.40;;;;;;;24.03;100.00;101374.50;5122398;27;20040;-79
2023/07/10 06:17:12;;;;;;;26.15;24.27;;;;;;;23.81;100.00;101376.75;5113813;27;20044;-79
2023/07/10 06:19:39;;;;;;;29.80;27.08;;;;;;;23.85;100.00;101378.66;5122874;27;20070;-79
2023/07/10 06:22:08;;;;;;;32.13;29.92;;;;;;;23.82;100.00;101390.06;5122593;27;20055;-79
2023/07/10 06:24:35;;;;;;;30.63;28.63;;;;;;;23.77;100.00;101379.22;5124702;27;20055;-79
2023/07/10 06:27:05;;;;;;;30.90;28.80;;;;;;;24.15;100.00;101374.16;5126499;27;20057;-78
2023/07/10 06:29:33;;;;;;;34.40;31.77;;;;;;;23.78;100.00;101375.41;5127246;27;20525;-78
2023/07/10 06:32:00;;;;;;;33.80;31.70;;;;;;;24.02;100.00;101382.91;5126998;27;20036;-79
2023/07/10 06:34:28;;;;;;;28.63;26.42;;;;;;;24.28;100.00;101378.13;5125157;27;20047;-80
2023/07/10 06:36:55;;;;;;;29.10;26.05;;;;;;;24.34;100.00;101377.81;5126324;27;20047;-78
2023/07/10 06:39:22;;;;;;;29.25;26.92;;;;;;;24.42;100.00;101379.97;5127779;27;20050;-78
2023/07/10 06:41:49;;;;;;;28.73;26.63;;;;;;;24.66;100.00;101381.94;5126267;27;20047;-79
2023/07/10 06:44:20;;;;;;;29.02;26.98;;;;;;;24.42;100.00;101384.59;5127399;27;20410;-79
2023/07/10 06:46:47;;;;;;;30.05;27.02;;;;;;;24.73;100.00;101389.78;5124049;27;20063;-79
2023/07/10 06:49:14;;;;;;;28.45;26.58;;;;;;;24.37;100.00;101393.53;5128522;27;20051;-79
2023/07/10 06:51:41;;;;;;;28.17;25.98;;;;;;;24.21;100.00;101387.41;5128313;27;20044;-79
2023/07/10 06:54:08;;;;;;;28.55;26.25;;;;;;;24.39;100.00;101390.56;5127976;27;20040;-79
2023/07/10 06:56:35;;;;;;;30.90;28.75;;;;;;;24.79;100.00;101394.06;5128405;27;20050;-79
2023/07/10 06:59:02;;;;;;;29.55;27.17;;;;;;;24.86;100.00;101379.03;5127998;27;20053;-79
2023/07/10 07:01:30;;;;;;;28.67;26.27;;;;;;;25.02;100.00;101379.69;5118262;27;20047;-79
2023/07/10 07:03:57;;;;;;;28.80;26.55;;;;;;;24.97;100.00;101379.75;5120730;27;20043;-79
2023/07/10 07:06:24;;;;;;;29.90;27.75;;;;;;;25.21;100.00;101390.69;5124237;27;20063;-79
2023/07/10 07:08:53;;;;;;;29.98;27.67;;;;;;;25.29;100.00;101387.31;5121599;27;20480;-79
2023/07/10 07:11:20;;;;;;;28.58;26.58;;;;;;;25.45;100.00;101381.75;5121322;27;20055;-79
2023/07/10 07:13:47;;;;;;;30.67;28.38;;;;;;;25.28;100.00;101385.72;5117354;27;20044;-79
2023/07/10 07:16:15;;;;;;;27.88;25.95;;;;;;;25.79;100.00;101374.22;5124006;27;20500;-79
2023/07/10 07:18:43;;;;;;;29.38;27.15;;;;;;;25.21;100.00;101373.59;5120545;27;20082;-79
2023/07/10 07:21:13;;;;;;;29.38;27.17;;;;;;;25.42;100.00;101379.56;5121663;27;20043;-79
2023/07/10 07:23:40;;;;;;;28.77;26.65;;;;;;;25.53;100.00;101370.22;5122102;27;20047;-79
2023/07/10 07:26:07;;;;;;;26.98;24.25;;;;;;;25.69;100.00;101368.94;5122973;27;20434;-79
2023/07/10 07:28:34;;;;;;;25.80;23.90;;;;;;;25.73;100.00;101361.00;5123038;27;20047;-76
2023/07/10 07:31:03;;;;;;;25.02;23.20;;;;;;;26.02;100.00;101369.88;5122410;27;20411;-77
2023/07/10 07:33:29;;;;;;;29.15;27.15;;;;;;;26.13;100.00;101365.06;5127105;27;20058;-77
2023/07/10 07:36:00;;;;;;;29.30;26.90;;;;;;;25.88;100.00;101360.00;5126579;27;20437;-77
2023/07/10 07:38:27;;;;;;;28.60;26.55;;;;;;;25.85;100.00;101352.44;5127164;27;20116;-79
2023/07/10 07:40:57;;;;;;;28.98;26.75;;;;;;;26.17;100.00;101359.84;5121159;27;20428;-79
2023/07/10 07:43:24;;;;;;;30.52;28.10;;;;;;;26.01;100.00;101359.25;5120391;27;20051;-79
2023/07/10 07:45:52;;;;;;;28.38;26.13;;;;;;;26.05;100.00;101368.44;5123297;27;20556;-77
2023/07/10 07:48:19;;;;;;;26.25;24.25;;;;;;;25.77;100.00;101354.66;5118600;27;20039;-77
2023/07/10 07:50:55;;;;;;;29.08;26.80;;;;;;;26.21;100.00;101363.63;5123216;27;20506;-77
2023/07/10 07:53:24;;;;;;;28.30;26.38;;;;;;;26.22;100.00;101352.41;5122789;27;20635;-77
2023/07/10 07:55:51;;;;;;;30.38;28.17;;;;;;;26.45;100.00;101358.88;5121366;27;20467;-77
2023/07/10 07:58:18;;;;;;;29.83;27.65;;;;;;;26.46;100.00;101356.94;5120734;27;20047;-77
2023/07/10 08:00:45;;;;;;;23.42;21.30;;;;;;;26.61;100.00;101348.53;5120603;27;20051;-77
2023/07/10 08:03:12;;;;;;;24.02;22.23;;;;;;;26.49;100.00;101345.50;5116569;27;20435;-77
2023/07/10 08:05:39;;;;;;;29.02;26.58;;;;;;;26.72;100.00;101347.28;5120324;27;20048;-77
2023/07/10 08:08:08;;;;;;;29.65;27.80;;;;;;;26.85;100.00;101344.88;5123253;27;20088;-77
2023/07/10 08:10:37;;;;;;;28.38;26.70;;;;;;;26.98;100.00;101352.25;5126393;27;20043;-77
2023/07/10 08:13:05;;;;;;;27.65;25.90;;;;;;;26.49;100.00;101349.00;5122805;27;20058;-77
2023/07/10 08:15:32;;;;;;;31.73;29.35;;;;;;;26.75;100.00;101345.88;5126621;27;20043;-77
2023/07/10 08:17:59;;;;;;;33.28;31.23;;;;;;;26.86;100.00;101341.84;5121652;27;20050;-77
2023/07/10 08:20:26;;;;;;;31.15;29.10;;;;;;;26.70;100.00;101341.31;5122287;27;20066;-77
2023/07/10 08:22:53;;;;;;;31.70;29.42;;;;;;;26.54;100.00;101339.13;5122578;27;20044;-77
2023/07/10 08:25:20;;;;;;;32.53;30.42;;;;;;;26.63;100.00;101334.63;5119897;27;20051;-77
2023/07/10 08:27:48;;;;;;;31.83;29.83;;;;;;;26.68;100.00;101324.44;5120914;27;20051;-77
2023/07/10 08:30:16;;;;;;;30.65;28.75;;;;;;;27.07;100.00;101327.81;5117119;27;20135;-77
2023/07/10 08:32:43;;;;;;;31.33;29.27;;;;;;;27.09;100.00;101328.34;5119908;27;20069;-77
2023/07/10 08:35:10;;;;;;;31.10;28.85;;;;;;;26.85;100.00;101331.25;5123432;27;20042;-76
2023/07/10 08:37:37;;;;;;;32.15;29.85;;;;;;;26.69;100.00;101341.63;5119302;27;20498;-77
2023/07/10 08:40:05;;;;;;;24.17;22.27;;;;;;;26.64;100.00;101333.53;5120433;27;20075;-77
2023/07/10 08:42:33;;;;;;;26.35;23.88;;;;;;;26.84;100.00;101333.16;5115919;27;20047;-77
2023/07/10 08:45:02;;;;;;;25.65;23.65;;;;;;;26.92;100.00;101332.44;5122698;27;20047;-77
2023/07/10 08:47:35;;;;;;;24.88;22.95;;;;;;;27.34;100.00;101348.84;5116119;27;20047;-77
2023/07/10 08:50:05;;;;;;;;;;;;;;;27.60;100.00;101335.50;5123285;27;20048;-77
2023/07/10 08:52:39;;;;;;;25.90;24.00;;;;;;;26.94;100.00;101327.50;5126842;27;20356;-78
2023/07/10 08:55:12;;;;;;;25.52;23.27;;;;;;;27.56;100.00;101329.03;5128634;27;20439;-78
2023/07/10 08:57:44;;;;;;;26.15;23.95;;;;;;;27.80;100.00;101326.09;5122587;27;20503;-77
2023/07/10 09:00:15;;;;;;;25.70;23.70;;;;;;;27.31;100.00;101333.91;5117236;27;20044;-77
2023/07/10 09:02:48;;;;;;;25.85;23.80;;;;;;;27.44;100.00;101328.75;5122123;28;20435;-77
2023/07/10 09:05:21;;;;;;;26.00;23.98;;;;;;;27.53;100.00;101329.66;5122265;28;20047;-77
2023/07/10 09:07:50;;;;;;;28.52;26.13;;;;;;;27.37;100.00;101316.34;5121876;28;20516;-77
2023/07/10 09:10:20;;;;;;;29.80;27.17;;;;;;;27.70;100.00;101320.84;5115298;28;20434;-78
2023/07/10 09:12:51;;;;;;;25.13;23.02;;;;;;;27.32;100.00;101323.81;5125324;28;20443;-77
2023/07/10 09:15:25;;;;;;;25.30;23.17;;;;;;;28.19;100.00;101314.50;5121775;28;20047;-78
2023/07/10 09:18:03;;;;;;;25.77;23.73;;;;;;;27.48;100.00;101318.88;5121795;28;20042;-77
2023/07/10 09:20:30;;;;;;;26.08;24.05;;;;;;;27.91;100.00;101316.56;5121267;28;20047;-77
2023/07/10 09:23:00;;;;;;;26.92;24.75;;;;;;;28.63;100.00;101317.56;5119664;27;20593;-77
2023/07/10 09:25:27;;;;;;;26.27;24.27;;;;;;;27.55;100.00;101305.59;5124006;27;20055;-77
2023/07/10 09:27:55;;;;;;;26.50;24.60;;;;;;;28.63;100.00;101306.63;5125941;27;20052;-77
2023/07/10 09:30:40;;;;;;;27.70;25.45;;;;;;;28.01;100.00;101301.84;5126331;27;20513;-78
2023/07/10 09:33:09;;;;;;;25.83;23.83;;;;;;;28.15;100.00;101302.59;5120372;27;20055;-79
2023/07/10 09:35:37;;;;;;;27.25;25.25;;;;;;;28.59;100.00;101295.50;5125580;27;20078;-79
2023/07/10 09:38:04;;;;;;;25.90;23.98;;;;;;;28.45;100.00;101292.88;5125934;27;20047;-78
2023/07/10 09:40:40;;;;;;;24.50;22.63;;;;;;;28.56;100.00;101296.13;5123741;27;20584;-78
2023/07/10 09:43:14;;;;;;;24.65;22.65;;;;;;;28.95;100.00;101280.88;5121566;27;20058;-78
2023/07/10 09:45:48;;;;;;;23.50;21.80;;;;;;;28.40;100.00;101284.78;5124643;27;20043;-78
2023/07/10 09:48:19;;;;;;;23.60;21.48;;;;;;;29.32;100.00;101278.75;5128688;27;20059;-78
2023/07/10 09:50:49;;;;;;;23.37;21.50;;;;;;;27.99;100.00;101285.81;5123586;27;20055;-78
2023/07/10 09:53:25;;;;;;;24.42;22.67;;;;;;;29.22;100.00;101274.38;5124311;27;20293;-77
2023/07/10 09:55:52;;;;;;;22.83;20.80;;;;;;;30.19;100.00;101267.81;5117067;27;20080;-78
2023/07/10 09:58:19;;;;;;;24.38;22.58;;;;;;;30.04;100.00;101263.66;5124039;27;20047;-78
2023/07/10 10:00:48;;;;;;;24.10;22.30;;;;;;;29.84;100.00;101256.94;5124213;27;20058;-78
2023/07/10 10:03:24;;;;;;;25.85;23.95;;;;;;;29.92;100.00;101264.31;5122750;27;20057;-77
2023/07/10 10:05:53;;;;;;;24.58;22.75;;;;;;;30.44;100.00;101253.28;5125095;27;20506;-77
2023/07/10 10:08:24;;;;;;;24.60;22.63;;;;;;;30.29;100.00;101260.09;5126038;27;20486;-80
2023/07/10 10:11:04;;;;;;;22.77;21.10;;;;;;;30.47;100.00;101249.91;5126208;27;20047;-79
2023/07/10 10:13:33;;;;;;;23.23;21.52;;;;;;;30.67;100.00;101248.34;5130796;27;20051;-79
2023/07/10 10:16:06;;;;;;;23.17;21.20;;;;;;;30.16;100.00;101249.28;5129377;27;20039;-79
2023/07/10 10:18:43;;;;;;;24.70;22.80;;;;;;;30.77;100.00;101238.94;5127906;27;20055;-79
2023/07/10 10:21:13;;;;;;;22.92;20.98;;;;;;;30.54;100.00;101233.75;5129529;27;20043;-79
2023/07/10 10:23:42;;;;;;;25.17;23.15;;;;;;;30.51;100.00;101226.19;5125505;27;20451;-79
2023/07/10 10:26:32;;;;;;;26.27;24.52;;;;;;;30.60;100.00;101228.09;5126646;27;20047;-80
2023/07/10 10:29:21;;;;;;;26.10;24.45;;;;;;;29.96;100.00;101228.91;5085900;27;20043;-79
2023/07/10 10:31:54;;;;;;;25.60;23.60;;;;;;;29.73;100.00;101218.13;5124327;27;20043;-79
2023/07/10 10:34:34;;;;;;;23.15;21.45;;;;;;;30.21;100.00;101230.00;5122550;27;20048;-79
2023/07/10 10:37:18;;;;;;;23.08;21.30;;;;;;;30.21;100.00;101216.28;5121929;27;20065;-79
2023/07/10 10:39:53;;;;;;;25.80;23.90;;;;;;;30.58;100.00;101210.00;5126587;27;20513;-79
2023/07/10 10:42:27;;;;;;;25.05;23.05;;;;;;;30.64;100.00;101199.66;5129822;27;20419;-79
2023/07/10 10:45:03;;;;;;;25.25;23.40;;;;;;;29.79;100.00;101205.06;5124156;27;20134;-79
2023/07/10 10:47:41;;;;;;;26.17;23.95;;;;;;;30.92;100.00;101202.75;5054423;27;20049;-79
2023/07/10 10:50:34;;;;;;;22.30;20.42;;;;;;;31.03;86.76;101201.25;5076836;28;20551;-79
2023/07/10 10:53:14;;;;;;;23.27;21.48;;;;;;;31.48;93.59;101197.88;5083239;28;20039;-80
2023/07/10 10:55:53;;;;;;;24.02;22.25;;;;;;;30.93;100.00;101193.41;5079533;28;20044;-79
2023/07/10 10:58:33;;;;;;;23.67;21.85;;;;;;;30.68;98.20;101192.41;5079444;28;20070;-79
2023/07/10 11:01:26;;;;;;;24.35;22.20;;;;;;;31.28;100.00;101184.94;5071368;28;20515;-79
2023/07/10 11:03:58;;;;;;;23.55;21.33;;;;;;;31.55;100.00;101188.28;5086925;28;20048;-79
2023/07/10 11:06:39;;;;;;;22.85;20.63;;;;;;;31.47;93.79;101179.00;5084490;28;20039;-78
2023/07/10 11:09:17;;;;;;;23.60;21.42;;;;;;;30.92;96.33;101178.09;5078803;28;20451;-78
2023/07/10 11:11:44;;;;;;;23.30;21.50;;;;;;;31.12;99.86;101178.44;5086623;28;20055;-77
2023/07/10 11:14:12;;;;;;;23.55;21.50;;;;;;;30.24;100.00;101175.34;5089133;28;20051;-78